Latest Weather Observations for Forrest

IDW60801

Issued at 10:23 pm WST Wednesday 8 July 2020 (issued every 10 minutes, with the page automatically refreshed every 10 minutes)

About weather observations | Map of weather stations | Latest weather observations for WA | Other Formats
Station Details ID: 011052 Name: FORREST Lat: -30.85 Lon: 128.11 Height: 159.0 m
Data from the previous 72 hours. | See also: Recent months at Forrest
Date/Time
WST
Temp
°C
App
Temp
°C
Dew
Point
°C
Rel
Hum
%
Delta-T
°C
Wind Press
QNH
hPa
Press
MSL
hPa
Rain since
9am
mm
Dir  Spd
km/h
Gust
km/h
Spd
kts
Gust
kts
08/10:00pm 10.2 7.7 4.6 68 2.5 S 7 11 4 6 1020.8 1020.9 0.0
08/09:30pm 10.6 8.1 4.5 66 2.8 SE 7 11 4 6 1020.9 1021.0 0.0
08/09:00pm 11.3 8.0 4.7 64 3.0 SE 11 13 6 7 1020.8 1020.9 0.0
08/08:30pm 11.5 8.1 3.8 59 3.5 SE 11 13 6 7 1020.9 1021.0 0.0
08/08:00pm 12.5 8.1 2.7 51 4.3 SSE 15 20 8 11 1020.9 1021.0 0.0
08/07:30pm 13.4 10.1 2.3 47 4.9 SSW 9 11 5 6 1020.6 1020.7 0.0
08/07:00pm 14.3 10.2 2.2 44 5.4 SW 13 15 7 8 1020.6 1020.7 0.0
08/06:30pm 15.0 10.6 2.9 44 5.5 SW 15 19 8 10 1020.5 1020.6 0.0
08/06:00pm 15.8 11.1 2.9 42 5.9 SW 17 17 9 9 1020.2 1020.3 0.0
08/05:30pm 16.4 12.0 2.8 40 6.2 SW 15 17 8 9 1020.1 1020.2 0.0
08/05:00pm 18.4 13.7 3.1 36 7.1 SW 17 19 9 10 1019.8 1019.9 0.0
08/04:30pm 19.4 15.0 2.7 33 7.8 SW 15 17 8 9 1019.5 1019.6 0.0
08/04:00pm 20.1 15.0 2.9 32 8.1 WSW 19 26 10 14 1019.3 1019.3 0.0
08/03:30pm 21.4 16.5 4.0 32 8.5 WSW 19 26 10 14 1019.2 1019.2 0.0
08/03:00pm 21.8 16.7 3.9 31 8.7 WSW 20 32 11 17 1019.2 1019.2 0.0
08/02:30pm 21.6 16.1 4.2 32 8.5 WSW 22 30 12 16 1018.9 1018.9 0.0
08/02:00pm 21.8 16.7 3.9 31 8.7 WSW 20 30 11 16 1019.0 1019.0 0.0
08/01:30pm 21.4 16.2 3.6 31 8.6 WSW 20 30 11 16 1019.1 1019.1 0.0
08/01:00pm 22.3 17.2 3.9 30 9.0 WSW 20 30 11 16 1019.1 1019.1 0.0
08/12:30pm 21.1 16.5 3.8 32 8.4 WSW 17 22 9 12 1019.4 1019.4 0.0
08/12:00pm 21.3 16.8 4.0 32 8.4 WSW 17 22 9 12 1019.9 1020.0 0.0
08/11:30am 20.7 17.2 3.4 32 8.3 SSW 11 17 6 9 1020.0 1020.1 0.0
08/11:00am 19.6 14.4 2.5 32 8.0 SW 19 24 10 13 1020.8 1020.9 0.0
08/10:30am 19.3 14.7 1.3 30 8.2 SW 15 19 8 10 1021.0 1021.1 0.0
08/10:00am 18.1 13.7 0.3 30 7.8 SW 13 17 7 9 1021.6 1021.7 0.0
08/09:30am 16.3 10.9 -1.3 30 7.4 WSW 17 22 9 12 1021.8 1021.9 0.0
08/09:00am 14.8 9.7 -2.1 31 6.8 W 15 19 8 10 1021.9 1022.0 0.0
08/08:30am 12.5 6.9 -2.5 35 5.9 NW 17 20 9 11 1021.9 1022.0 0.0
08/08:00am 10.4 5.2 -2.6 40 5.0 NNW 15 19 8 10 1021.4 1021.5 0.0
08/07:30am 8.4 3.6 -2.5 46 4.1 N 13 15 7 8 1021.1 1021.2 0.0
08/07:00am 5.3 1.1 -3.5 53 3.1 NNE 9 13 5 7 1020.9 1021.0 0.0
08/06:30am 4.9 0.4 -3.6 54 3.0 N 11 13 6 7 1021.1 1021.2 0.0
08/06:00am 5.5 1.0 -3.3 53 3.1 N 11 13 6 7 1020.8 1020.9 0.0
08/05:30am 4.8 -0.1 -3.7 54 3.0 N 13 15 7 8 1020.7 1020.8 0.0
08/05:00am 4.8 -0.9 -3.7 54 3.0 N 17 19 9 10 1020.5 1020.6 0.0
08/04:30am 5.1 0.2 -3.4 54 3.0 N 13 17 7 9 1020.5 1020.6 0.0
08/04:00am 5.4 0.5 -3.6 52 3.2 N 13 15 7 8 1020.6 1020.7 0.0
08/03:30am 5.3 0.0 -4.0 51 3.2 NNE 15 17 8 9 1020.8 1020.9 0.0
08/03:00am 6.0 1.8 -3.9 49 3.5 NNE 9 11 5 6 1020.7 1020.8 0.0
08/02:30am 6.9 2.8 -3.1 49 3.6 NNE 9 9 5 5 1020.9 1021.0 0.0
08/02:00am 7.3 2.7 -3.8 45 4.0 NNW 11 15 6 8 1020.9 1021.0 0.0
08/01:30am 8.5 3.7 -2.7 45 4.2 NW 13 15 7 8 1021.2 1021.3 0.0
08/01:00am 8.3 4.2 -3.2 44 4.2 WSW 9 11 5 6 1021.4 1021.5 0.0
08/12:30am 9.0 5.4 -2.3 45 4.3 WSW 7 13 4 7 1021.2 1021.3 0.0
08/12:00am 8.0 3.5 -2.9 46 4.0 NNW 11 17 6 9 1021.4 1021.5 0.0
 
Date/Time
WST
Temp
°C
App
Temp
°C
Dew
Point
°C
Rel
Hum
%
Delta-T
°C
Wind Press
QNH
hPa
Press
MSL
hPa
Rain since
9am
mm
Dir  Spd
km/h
Gust
km/h
Spd
kts
Gust
kts
07/11:30pm 10.4 6.1 -1.9 42 4.8 NNE 11 13 6 7 1021.2 1021.3 0.0
07/11:00pm 10.5 7.0 -1.5 43 4.7 NNE 7 9 4 5 1021.5 1021.6 0.0
07/10:30pm 10.6 6.2 -2.1 41 4.9 NNE 11 13 6 7 1021.5 1021.6 0.0
07/10:00pm 10.9 6.5 -2.1 40 5.0 NE 11 13 6 7 1021.4 1021.5 0.0
07/09:30pm 11.7 6.6 -2.1 38 5.4 NE 15 19 8 10 1021.3 1021.4 0.0
07/09:00pm 12.7 6.6 -2.3 35 5.9 NE 20 26 11 14 1021.1 1021.2 0.0
07/08:30pm 13.5 6.6 -2.4 33 6.3 NE 24 28 13 15 1021.1 1021.2 0.0
07/08:00pm 13.5 7.0 -2.4 33 6.3 NE 22 28 12 15 1021.1 1021.2 0.0
07/07:30pm 13.9 8.0 -2.5 32 6.5 NE 19 24 10 13 1021.2 1021.3 0.0
07/07:00pm 14.1 8.5 -2.8 31 6.7 NE 17 20 9 11 1021.2 1021.3 0.0
07/06:30pm 15.5 9.6 -2.4 29 7.3 NE 19 22 10 12 1021.1 1021.2 0.0
07/06:00pm 16.0 10.1 -2.5 28 7.5 NE 19 22 10 12 1021.0 1021.1 0.0
07/05:30pm 17.4 10.5 -2.3 26 8.2 NE 24 26 13 14 1020.7 1020.8 0.0
07/05:00pm 17.7 11.8 -2.5 25 8.3 NE 19 20 10 11 1020.7 1020.8 0.0
07/04:30pm 20.1 14.5 -2.9 21 9.7 NE 17 17 9 9 1020.6 1020.7 0.0
07/04:00pm 22.8 18.0 -2.7 18 11.0 NNE 13 17 7 9 1020.6 1020.7 0.0
07/03:30pm 23.5 18.7 -2.9 17 11.4 NNE 13 17 7 9 1020.8 1020.9 0.0
07/03:00pm 23.6 18.8 -2.8 17 11.4 N 13 19 7 10 1020.9 1021.0 0.0
07/02:30pm 24.2 19.4 -2.4 17 11.7 N 13 19 7 10 1021.0 1021.1 0.0
07/02:00pm 23.0 17.8 -2.6 18 11.1 N 15 19 8 10 1021.3 1021.4 0.0
07/01:30pm 22.9 17.8 -1.9 19 10.9 N 15 20 8 11 1021.4 1021.5 0.0
07/01:00pm 22.4 17.7 -1.6 20 10.5 N 13 20 7 11 1021.7 1021.8 0.0
07/12:30pm 22.6 17.9 -1.5 20 10.7 N 13 24 7 13 1022.2 1022.3 0.0
07/12:00pm 21.3 16.6 -1.9 21 10.0 N 13 19 7 10 1022.8 1022.9 0.0
07/11:30am 20.7 15.3 -1.1 23 9.6 N 17 28 9 15 1023.2 1023.3 0.0
07/11:00am 19.8 13.5 -1.3 24 9.1 N 22 28 12 15 1023.5 1023.6 0.0
07/10:30am 19.0 13.2 -0.4 27 8.5 N 20 28 11 15 1024.0 1024.1 0.0
07/10:00am 17.1 10.5 -0.6 30 7.5 N 24 32 13 17 1024.4 1024.5 0.0
07/09:30am 15.6 8.5 -1.0 32 7.0 N 26 33 14 18 1024.7 1024.7 0.0
07/09:00am 13.6 6.6 -0.8 37 5.9 N 26 32 14 17 1025.0 1025.1 0.0
07/08:30am 11.8 5.2 -0.7 42 5.1 NNE 24 32 13 17 1025.0 1025.1 0.0
07/08:00am 9.5 3.8 -0.9 48 4.1 NNE 19 24 10 13 1025.2 1025.3 0.0
07/07:30am 7.3 1.9 -1.4 54 3.3 NNE 17 22 9 12 1025.0 1025.1 0.0
07/07:00am 5.5 0.8 -1.6 60 2.6 NE 13 15 7 8 1024.7 1024.7 0.0
07/06:30am 4.5 -0.2 -2.1 62 2.4 NNE 13 15 7 8 1024.7 1024.7 0.0
07/06:00am 4.7 0.0 -1.9 62 2.4 NNE 13 17 7 9 1024.4 1024.5 0.0
07/05:30am 4.6 -0.1 -2.0 62 2.4 NE 13 17 7 9 1024.3 1024.4 0.0
07/05:00am 4.2 -0.6 -2.4 62 2.3 NE 13 15 7 8 1024.2 1024.3 0.0
07/04:30am 4.3 -0.1 -2.5 61 2.4 NE 11 13 6 7 1024.2 1024.3 0.0
07/04:00am 5.1 0.0 -2.2 59 2.6 NE 15 19 8 10 1024.1 1024.2 0.0
07/03:30am 5.5 0.8 -2.1 58 2.8 NE 13 17 7 9 1024.6 1024.6 0.0
07/03:00am 5.6 0.1 -2.0 58 2.8 NE 17 19 9 10 1024.3 1024.4 0.0
07/02:30am 4.1 -0.8 -3.0 60 2.5 NE 13 15 7 8 1024.7 1024.7 0.0
07/02:00am 4.6 -0.2 -2.7 59 2.6 NE 13 15 7 8 1024.9 1025.0 0.0
07/01:30am 5.5 0.7 -2.6 56 2.9 NE 13 15 7 8 1024.8 1024.9 0.0
07/01:00am 7.4 2.3 -2.1 51 3.5 NE 15 19 8 10 1025.1 1025.2 0.0
07/12:30am 8.5 1.7 -1.6 49 3.9 NE 24 30 13 16 1025.0 1025.1 0.0
07/12:00am 7.7 1.6 -2.0 50 3.6 NE 20 26 11 14 1025.1 1025.2 0.0
 
Date/Time
WST
Temp
°C
App
Temp
°C
Dew
Point
°C
Rel
Hum
%
Delta-T
°C
Wind Press
QNH
hPa
Press
MSL
hPa
Rain since
9am
mm
Dir  Spd
km/h
Gust
km/h
Spd
kts
Gust
kts
06/11:30pm 6.2 0.6 -2.9 52 3.3 NE 17 20 9 11 1025.3 1025.4 0.0
06/11:00pm 5.0 -0.3 -3.8 53 3.0 ENE 15 17 8 9 1025.7 1025.8 0.0
06/10:30pm 5.5 0.5 -4.1 50 3.3 ENE 13 15 7 8 1026.2 1026.3 0.0
06/10:00pm 6.2 0.5 -4.0 48 3.6 ENE 17 19 9 10 1026.2 1026.3 0.0
06/09:30pm 6.5 1.2 -4.0 47 3.7 ENE 15 17 8 9 1026.3 1026.4 0.0
06/09:00pm 7.4 2.5 -3.7 45 4.0 ENE 13 13 7 7 1026.3 1026.4 0.0
06/08:30pm 7.9 2.6 -3.9 43 4.3 ENE 15 17 8 9 1026.0 1026.1 0.0
06/08:00pm 8.6 2.9 -3.6 42 4.4 ENE 17 19 9 10 1026.0 1026.1 0.0
06/07:30pm 9.3 3.6 -3.6 40 4.8 ENE 17 19 9 10 1026.0 1026.1 0.0
06/07:00pm 10.0 3.9 -4.0 37 5.1 ENE 19 20 10 11 1026.0 1026.1 0.0
06/06:30pm 10.6 4.8 -4.2 35 5.5 ENE 17 17 9 9 1026.1 1026.2 0.0
06/06:00pm 12.0 6.2 -4.2 32 6.0 ENE 17 17 9 9 1025.8 1025.9 0.0
06/05:30pm 13.6 7.9 -3.6 30 6.7 ENE 17 19 9 10 1025.3 1025.4 0.0
06/05:00pm 15.5 9.4 -3.9 26 7.6 ENE 19 20 10 11 1025.0 1025.1 0.0
06/04:30pm 17.9 11.8 -4.1 22 8.8 NE 19 24 10 13 1025.0 1025.1 0.0
06/04:00pm 19.5 12.1 -4.0 20 9.6 NE 26 33 14 18 1024.9 1025.0 0.0
06/03:30pm 20.1 12.0 -3.5 20 9.8 ENE 30 35 16 19 1024.8 1024.9 0.0
06/03:00pm 20.7 12.2 -3.7 19 10.1 NE 32 39 17 21 1024.7 1024.7 0.0
06/02:30pm 20.8 13.1 -3.0 20 10.1 NE 28 37 15 20 1024.7 1024.7 0.0
06/02:00pm 21.1 12.6 -3.4 19 10.2 NE 32 39 17 21 1024.9 1025.0 0.0
06/01:30pm 21.3 12.8 -3.2 19 10.4 NE 32 39 17 21 1025.4 1025.5 0.0
06/01:00pm 21.0 12.6 -2.8 20 10.1 NE 32 37 17 20 1025.8 1025.9 0.0
06/12:30pm 20.9 12.9 -2.2 21 9.9 NE 30 39 16 21 1026.2 1026.3 0.0
06/12:00pm 20.3 11.8 -2.1 22 9.5 NE 33 41 18 22 1026.6 1026.7 0.0
06/11:30am 20.2 11.3 -1.6 23 9.4 NE 35 44 19 24 1027.0 1027.1 0.0
06/11:00am 19.3 10.1 -1.2 25 8.8 NNE 37 48 20 26 1027.4 1027.5 0.0
06/10:30am 18.9 9.0 -1.0 26 8.6 NNE 41 50 22 27 1027.8 1027.9 0.0
06/10:00am 17.9 8.4 -0.4 29 7.9 NNE 39 50 21 27 1028.1 1028.2 0.0
06/09:30am 16.3 7.0 0.4 34 6.9 NNE 39 48 21 26 1028.5 1028.6 0.0
06/09:00am 14.6 7.1 1.5 41 5.7 NNE 30 41 16 22 1028.9 1029.0 0.0
06/08:30am 11.4 5.9 1.9 52 4.1 NNE 20 28 11 15 1029.0 1029.1 0.0
06/08:00am 8.7 3.7 1.1 59 3.1 NE 17 22 9 12 1028.8 1028.9 0.0
06/07:30am 5.7 1.3 0.3 68 2.1 NNE 13 15 7 8 1028.6 1028.7 0.0
06/07:00am 4.0 -0.1 -0.4 73 1.6 NNE 11 13 6 7 1028.4 1028.5 0.0
06/06:30am 2.9 -0.9 -0.9 76 1.4 NNE 9 11 5 6 1028.0 1028.1 0.0
06/06:00am 3.3 -1.3 -0.7 75 1.5 NNE 13 13 7 7 1027.7 1027.8 0.0
06/05:30am 4.0 -0.1 -0.2 74 1.6 NE 11 13 6 7 1027.4 1027.5 0.0
06/05:00am 4.0 0.3 0.2 76 1.4 NE 9 11 5 6 1027.2 1027.3 0.0
06/04:30am 3.4 -0.8 -0.6 75 1.5 NE 11 13 6 7 1027.0 1027.1 0.0
06/04:00am 4.0 -0.1 -0.2 74 1.6 NE 11 13 6 7 1026.8 1026.9 0.0
06/03:30am 4.2 -0.3 -0.2 73 1.7 NE 13 15 7 8 1026.6 1026.7 0.0
06/03:00am 5.1 0.3 0.3 71 1.8 NE 15 19 8 10 1026.6 1026.7 0.0
06/02:30am 5.8 0.7 0.8 70 2.0 NE 17 19 9 10 1026.6 1026.7 0.0
06/02:00am 5.3 0.5 0.5 71 1.9 ENE 15 17 8 9 1026.7 1026.8 0.0
06/01:30am 5.0 0.2 0.0 70 1.9 ENE 15 17 8 9 1026.8 1026.9 0.0
06/01:00am 5.5 1.1 0.3 69 2.0 ENE 13 15 7 8 1026.9 1027.0 0.0
06/12:30am 5.7 0.9 0.3 68 2.1 ENE 15 17 8 9 1027.0 1027.1 0.0
06/12:00am 6.2 1.4 0.3 66 2.3 ENE 15 15 8 8 1027.0 1027.1 0.0
 
Date/Time
WST
Temp
°C
App
Temp
°C
Dew
Point
°C
Rel
Hum
%
Delta-T
°C
Wind Press
QNH
hPa
Press
MSL
hPa
Rain since
9am
mm
Dir  Spd
km/h
Gust
km/h
Spd
kts
Gust
kts
05/11:30pm 7.0 2.3 0.7 64 2.5 ENE 15 17 8 9 1027.2 1027.3 0.0
05/11:00pm 8.0 2.9 1.0 61 2.8 ENE 17 19 9 10 1027.3 1027.4 0.0
05/10:30pm 8.0 2.9 1.0 61 2.8 ENE 17 19 9 10 1027.4 1027.5 0.0

Other formats

Comma delimited format used in spreadsheet applications
http://www.bom.gov.au/fwo/IDW60801/IDW60801.95646.axf

JavaScript Object Notation format (JSON) in row-major order
http://www.bom.gov.au/fwo/IDW60801/IDW60801.95646.json

Data quality

Most of these data are generated automatically and are frequently updated. Quality checks on data are not normally performed. It is possible for incorrect values to appear. Refer to information at About Latest Weather Observations and please check the disclaimer before using these data.